Terminal Aerodrome Forecast
Issued by NWS Duluth, MN

Home | Current Version | Previous Version | Text Only | Print | Product List | Glossary On
Versions: 1 2 3 4 5 6 7 8 9 10 11 12 13 14 15 16 17 18 19 20 21 22 23 24 25 26 27 28 29 30
049
FTUS43 KDLH 030848 AAA
TAFINL
TAF AMD
KINL 030848Z 0309/0406 00000KT P6SM OVC006
     FM031100 20004KT P6SM OVC011
     FM031600 19004KT P6SM OVC025
     FM032100 17006KT P6SM BKN025 OVC050
     FM040100 14006KT P6SM OVC025=

USA.gov is the U.S. government's official web portal to all federal, state and local government web resources and services.